Time;durP1;ratioP1;P1;durP2;ratioP2;P2;SDS_P1;SDS_P2;PMS_P1;PMS_P2;Temp;Humidity;BMP_temperature;BMP_pressure;BME280_temperature;BME280_humidity;BME280_pressure;Samples;Min_cycle;Max_cycle;Signal;HPM_P1;HPM_P2
2021/07/03 00:01:59;;;;;;;20.95;11.38;;;15.20;99.90;;;;;;5030337;28;20037;-79
2021/07/03 00:04:25;;;;;;;19.15;11.13;;;15.20;99.90;;;;;;5015169;28;20026;-79
2021/07/03 00:06:51;;;;;;;21.85;10.40;;;15.20;99.90;;;;;;5013807;28;20032;-79
2021/07/03 00:09:17;;;;;;;18.02;10.65;;;15.10;99.90;;;;;;5015009;28;20018;-79
2021/07/03 00:11:43;;;;;;;17.73;10.98;;;15.20;99.90;;;;;;4994966;28;20030;-79
2021/07/03 00:14:09;;;;;;;20.02;11.20;;;15.20;99.90;;;;;;4995353;28;20026;-79
2021/07/03 00:16:35;;;;;;;22.95;11.10;;;15.10;99.90;;;;;;4995395;28;20023;-79
2021/07/03 00:19:01;;;;;;;22.73;10.68;;;15.10;99.90;;;;;;4995358;28;20026;-79
2021/07/03 00:21:27;;;;;;;17.33;11.32;;;15.10;99.90;;;;;;5008146;28;20044;-79
2021/07/03 00:23:53;;;;;;;17.85;11.27;;;15.20;99.90;;;;;;5013491;28;20037;-79
2021/07/03 00:26:18;;;;;;;26.25;12.77;;;15.20;99.90;;;;;;5014707;28;20029;-79
2021/07/03 00:28:44;;;;;;;20.65;11.60;;;15.20;99.90;;;;;;5014656;28;20025;-79
2021/07/03 00:31:10;;;;;;;14.40;9.93;;;15.10;99.90;;;;;;5006064;28;20036;-80
2021/07/03 00:33:35;;;;;;;21.70;10.32;;;15.10;99.90;;;;;;4994723;28;20499;-79
2021/07/03 00:36:01;;;;;;;18.13;9.18;;;15.20;99.90;;;;;;4995016;28;20053;-79
2021/07/03 00:38:26;;;;;;;16.05;9.05;;;15.20;99.90;;;;;;4994908;28;20049;-79
2021/07/03 00:40:52;;;;;;;13.93;8.80;;;15.30;99.90;;;;;;4995099;28;20125;-79
2021/07/03 00:43:18;;;;;;;24.02;10.85;;;15.30;99.90;;;;;;4994584;28;20513;-80
2021/07/03 00:45:43;;;;;;;16.20;8.13;;;15.30;99.90;;;;;;4993964;28;20108;-80
2021/07/03 00:48:09;;;;;;;19.35;8.90;;;15.30;99.90;;;;;;5014410;28;20030;-79
2021/07/03 00:50:35;;;;;;;14.77;8.30;;;15.30;99.90;;;;;;5014485;28;20421;-79
2021/07/03 00:53:01;;;;;;;14.77;8.18;;;15.40;99.90;;;;;;4996109;28;20463;-79
2021/07/03 00:55:27;;;;;;;18.83;9.43;;;15.30;99.90;;;;;;5009871;28;20182;-79
2021/07/03 00:57:53;;;;;;;14.70;8.63;;;15.30;99.90;;;;;;5009583;28;20026;-79
2021/07/03 01:00:21;;;;;;;18.60;9.57;;;15.20;99.90;;;;;;4994589;28;20072;-79
2021/07/03 01:02:47;;;;;;;17.85;8.70;;;15.10;99.90;;;;;;5006828;28;20422;-79
2021/07/03 01:05:13;;;;;;;21.27;9.60;;;15.20;99.90;;;;;;5029171;28;20029;-79
2021/07/03 01:07:39;;;;;;;17.83;8.32;;;15.20;99.90;;;;;;5013917;28;20018;-79
2021/07/03 01:10:15;;;;;;;17.00;8.90;;;15.20;99.90;;;;;;5029228;28;20106;-79
2021/07/03 01:12:40;;;;;;;14.98;8.95;;;15.10;99.90;;;;;;5004031;28;20026;-79
2021/07/03 01:15:06;;;;;;;22.17;9.35;;;15.20;99.90;;;;;;5009348;28;20032;-79
2021/07/03 01:17:32;;;;;;;19.23;8.82;;;15.10;99.90;;;;;;4993020;28;20030;-79
2021/07/03 01:19:58;;;;;;;21.58;8.75;;;15.20;99.90;;;;;;4994175;28;20471;-80
2021/07/03 01:22:23;;;;;;;15.77;9.32;;;15.10;99.90;;;;;;4994975;28;20037;-79
2021/07/03 01:24:49;;;;;;;17.27;10.25;;;15.10;99.90;;;;;;5009171;28;20026;-79
2021/07/03 01:27:15;;;;;;;20.60;11.07;;;15.10;99.90;;;;;;4993981;28;20109;-80
2021/07/03 01:29:41;;;;;;;23.98;10.13;;;15.10;99.90;;;;;;4992804;28;20054;-79
2021/07/03 01:32:07;;;;;;;18.40;10.85;;;15.10;99.90;;;;;;4993819;28;20069;-79
2021/07/03 01:34:33;;;;;;;14.80;9.55;;;15.00;99.90;;;;;;5012261;28;20133;-79
2021/07/03 01:36:59;;;;;;;17.75;8.85;;;15.10;99.90;;;;;;5028708;28;20114;-79
2021/07/03 01:39:26;;;;;;;16.52;8.77;;;15.10;99.90;;;;;;5013479;28;20034;-79
2021/07/03 01:41:51;;;;;;;17.52;9.32;;;15.10;99.90;;;;;;5011959;28;20422;-79
2021/07/03 01:44:26;;;;;;;14.18;9.98;;;15.10;99.90;;;;;;4998633;28;20034;-79
2021/07/03 01:46:54;;;;;;;11.98;8.77;;;15.10;99.90;;;;;;5021658;28;20434;-80
2021/07/03 01:49:19;;;;;;;16.17;9.20;;;15.20;99.90;;;;;;5013174;28;20054;-80
2021/07/03 01:51:45;;;;;;;22.55;9.30;;;15.20;99.90;;;;;;5028213;28;20068;-79
2021/07/03 01:54:11;;;;;;;18.65;9.85;;;15.10;99.90;;;;;;5017789;28;20103;-79
2021/07/03 01:56:40;;;;;;;18.77;7.65;;;15.10;99.90;;;;;;4993504;28;20026;-79
2021/07/03 01:59:05;;;;;;;12.80;8.27;;;15.10;99.90;;;;;;5008514;28;20435;-79
2021/07/03 02:01:31;;;;;;;13.93;8.20;;;15.10;99.90;;;;;;4993226;28;20080;-79
2021/07/03 02:03:56;;;;;;;11.32;7.90;;;15.10;99.90;;;;;;4998198;28;20030;-79
2021/07/03 02:06:22;;;;;;;13.27;8.90;;;15.10;99.90;;;;;;5012828;28;20029;-79
2021/07/03 02:08:47;;;;;;;15.52;8.23;;;15.10;99.90;;;;;;5012920;28;20109;-79
2021/07/03 02:11:13;;;;;;;10.80;7.20;;;15.10;99.90;;;;;;5012691;28;20038;-79
2021/07/03 02:13:38;;;;;;;11.85;7.93;;;15.10;99.90;;;;;;5012300;28;20037;-79
2021/07/03 02:16:04;;;;;;;17.20;7.80;;;15.10;99.90;;;;;;4993051;28;20026;-79
2021/07/03 02:18:30;;;;;;;16.33;8.45;;;15.00;99.90;;;;;;4993029;28;20030;-79
2021/07/03 02:20:55;;;;;;;10.82;7.22;;;15.00;99.90;;;;;;4992934;28;20030;-79
2021/07/03 02:23:21;;;;;;;13.93;7.68;;;15.10;99.90;;;;;;4992814;28;20113;-79
2021/07/03 02:25:47;;;;;;;11.55;7.93;;;15.10;99.90;;;;;;5007150;28;20044;-79
2021/07/03 02:28:14;;;;;;;13.38;7.35;;;15.10;99.90;;;;;;5011293;28;20026;-79
2021/07/03 02:30:39;;;;;;;12.18;7.20;;;15.10;99.90;;;;;;5012525;28;20049;-79
2021/07/03 02:33:05;;;;;;;13.90;7.00;;;15.10;99.90;;;;;;5012065;28;20022;-79
2021/07/03 02:35:30;;;;;;;11.10;7.68;;;15.10;99.90;;;;;;5017873;28;20057;-79
2021/07/03 02:37:57;;;;;;;13.18;8.27;;;15.10;99.90;;;;;;4992812;28;20118;-79
2021/07/03 02:40:23;;;;;;;18.05;7.70;;;15.10;99.90;;;;;;4992703;28;20036;-79
2021/07/03 02:42:49;;;;;;;9.15;7.25;;;15.10;99.90;;;;;;4992449;28;20030;-79
2021/07/03 02:45:16;;;;;;;16.38;7.68;;;15.10;99.90;;;;;;4994492;28;20089;-79
2021/07/03 02:47:42;;;;;;;13.73;8.38;;;15.00;99.90;;;;;;5027366;28;20056;-79
2021/07/03 02:50:15;;;;;;;10.68;7.53;;;15.10;99.90;;;;;;5012258;28;20475;-79
2021/07/03 02:52:41;;;;;;;12.23;7.75;;;15.10;99.90;;;;;;5027416;28;20025;-79
2021/07/03 02:55:07;;;;;;;10.57;6.88;;;15.00;99.90;;;;;;5010736;28;20022;-79
2021/07/03 02:57:34;;;;;;;13.93;7.13;;;15.10;99.90;;;;;;5007240;28;20076;-79
2021/07/03 03:00:00;;;;;;;12.20;8.10;;;15.00;99.90;;;;;;4992459;28;20029;-79
2021/07/03 03:02:25;;;;;;;10.38;7.07;;;15.00;99.90;;;;;;4991086;28;20121;-79
2021/07/03 03:04:51;;;;;;;12.77;7.43;;;15.00;99.90;;;;;;4992395;28;20033;-79
2021/07/03 03:07:16;;;;;;;10.52;7.00;;;15.00;99.90;;;;;;4992933;28;20426;-79
2021/07/03 03:09:42;;;;;;;11.52;7.13;;;15.00;99.90;;;;;;4992192;28;20050;-80
2021/07/03 03:12:07;;;;;;;9.52;7.00;;;15.10;99.90;;;;;;4992230;28;20568;-79
2021/07/03 03:14:33;;;;;;;11.13;6.78;;;15.10;99.90;;;;;;4992325;28;20026;-79
2021/07/03 03:16:59;;;;;;;12.13;7.65;;;15.00;99.90;;;;;;5002149;28;20030;-79
2021/07/03 03:19:24;;;;;;;13.90;6.95;;;15.00;99.90;;;;;;5027068;28;20509;-79
2021/07/03 03:21:50;;;;;;;8.80;6.18;;;15.00;99.90;;;;;;5011710;28;20482;-79
2021/07/03 03:24:16;;;;;;;9.48;5.60;;;15.00;99.90;;;;;;5026998;28;20099;-79
2021/07/03 03:26:42;;;;;;;17.52;5.95;;;15.10;99.90;;;;;;5006748;28;20053;-79
2021/07/03 03:29:08;;;;;;;9.70;6.45;;;15.10;99.90;;;;;;4992297;28;20062;-79
2021/07/03 03:31:33;;;;;;;9.73;5.78;;;15.10;99.90;;;;;;4990876;28;20177;-79
2021/07/03 03:33:59;;;;;;;15.45;5.93;;;15.10;99.90;;;;;;4992122;28;20081;-79
2021/07/03 03:36:24;;;;;;;10.27;5.68;;;15.10;99.90;;;;;;4992147;28;20030;-79
2021/07/03 03:38:50;;;;;;;9.77;5.97;;;15.10;99.90;;;;;;5011381;28;20062;-79
2021/07/03 03:41:16;;;;;;;7.85;5.70;;;15.10;99.90;;;;;;5011587;28;20037;-79
2021/07/03 03:43:42;;;;;;;7.53;5.18;;;15.20;99.90;;;;;;5011678;28;20111;-79
2021/07/03 03:46:07;;;;;;;14.70;5.47;;;15.20;99.90;;;;;;5011632;28;20030;-79
2021/07/03 03:48:33;;;;;;;11.18;5.43;;;15.20;99.90;;;;;;5010781;28;20080;-79
2021/07/03 03:50:58;;;;;;;6.63;5.20;;;15.20;99.90;;;;;;5011671;28;20475;-79
2021/07/03 03:53:24;;;;;;;9.57;5.72;;;15.20;99.90;;;;;;5011324;28;20056;-79
2021/07/03 03:55:50;;;;;;;7.30;5.68;;;15.20;99.90;;;;;;5026854;28;20026;-79
2021/07/03 03:58:15;;;;;;;12.50;5.80;;;15.20;99.90;;;;;;5017414;28;20038;-79
2021/07/03 04:00:41;;;;;;;12.00;5.22;;;15.20;99.90;;;;;;4992013;28;20040;-79
2021/07/03 04:03:07;;;;;;;9.70;7.05;;;15.20;99.90;;;;;;4991620;28;20035;-79
2021/07/03 04:05:32;;;;;;;9.77;5.63;;;15.20;99.90;;;;;;4990659;28;20058;-79
2021/07/03 04:07:58;;;;;;;24.27;6.28;;;15.20;99.90;;;;;;4994569;28;22018;-79
2021/07/03 04:10:24;;;;;;;9.57;6.05;;;15.10;99.90;;;;;;4995555;28;20038;-79
2021/07/03 04:12:49;;;;;;;7.13;5.95;;;15.20;99.90;;;;;;4995269;28;20033;-79
2021/07/03 04:15:15;;;;;;;9.45;5.30;;;15.20;99.90;;;;;;4995464;28;20061;-79
2021/07/03 04:17:41;;;;;;;8.32;5.47;;;15.20;99.90;;;;;;5010374;28;20572;-79
2021/07/03 04:20:08;;;;;;;11.77;5.63;;;15.20;99.90;;;;;;5013534;28;20033;-79
2021/07/03 04:22:35;;;;;;;7.03;4.40;;;15.20;99.90;;;;;;5014525;28;20073;-79
2021/07/03 04:25:01;;;;;;;10.05;5.03;;;15.30;99.90;;;;;;5014748;28;20025;-79
2021/07/03 04:27:26;;;;;;;7.47;4.28;;;15.20;99.90;;;;;;5014832;28;20421;-79
2021/07/03 04:29:52;;;;;;;6.93;4.32;;;15.30;99.90;;;;;;5016027;28;20487;-79
2021/07/03 04:32:17;;;;;;;7.47;5.13;;;15.20;99.90;;;;;;5010346;28;20026;-79
2021/07/03 04:34:43;;;;;;;8.55;4.22;;;15.20;99.90;;;;;;4995029;28;20483;-79
2021/07/03 04:37:09;;;;;;;8.68;4.70;;;15.20;99.90;;;;;;4994997;28;20487;-79
2021/07/03 04:39:35;;;;;;;6.95;4.38;;;15.20;99.90;;;;;;5003186;28;20034;-79
2021/07/03 04:42:00;;;;;;;5.22;4.00;;;15.20;99.90;;;;;;5011648;28;20038;-79
2021/07/03 04:44:26;;;;;;;8.63;3.85;;;15.20;99.90;;;;;;4994831;28;20026;-79
2021/07/03 04:46:52;;;;;;;12.23;4.15;;;15.20;99.90;;;;;;4993450;28;20035;-79
2021/07/03 04:49:18;;;;;;;5.43;3.65;;;15.20;99.90;;;;;;4997921;28;20024;-79
2021/07/03 04:51:44;;;;;;;7.20;3.22;;;15.30;99.90;;;;;;5014171;28;20030;-79
2021/07/03 04:54:10;;;;;;;6.03;3.17;;;15.20;99.90;;;;;;5014196;28;20052;-80
2021/07/03 04:56:35;;;;;;;5.63;3.22;;;15.20;99.90;;;;;;5029628;28;20029;-79
2021/07/03 04:59:01;;;;;;;8.00;4.55;;;15.20;99.90;;;;;;5029424;28;20026;-79
2021/07/03 05:01:26;;;;;;;9.48;3.72;;;15.20;99.90;;;;;;4995856;28;20031;-79
2021/07/03 05:03:52;;;;;;;5.28;3.00;;;15.20;99.90;;;;;;4994525;28;20097;-79
2021/07/03 05:06:18;;;;;;;14.30;3.65;;;15.30;99.90;;;;;;4994368;28;20018;-80
2021/07/03 05:08:44;;;;;;;8.55;3.00;;;15.30;99.90;;;;;;5009568;28;20168;-80
2021/07/03 05:11:10;;;;;;;5.38;3.20;;;15.30;99.90;;;;;;5006651;28;20105;-80
2021/07/03 05:13:36;;;;;;;5.75;3.30;;;15.30;99.90;;;;;;5013832;28;20029;-79
2021/07/03 05:16:02;;;;;;;6.15;3.50;;;15.30;99.90;;;;;;5029084;28;20084;-79
2021/07/03 05:18:28;;;;;;;10.43;3.13;;;15.40;99.90;;;;;;5012968;28;20113;-79
2021/07/03 05:20:54;;;;;;;14.10;3.35;;;15.40;99.90;;;;;;5020780;28;20112;-79
2021/07/03 05:23:20;;;;;;;6.93;2.47;;;15.40;99.90;;;;;;4994029;28;20046;-79
2021/07/03 05:25:46;;;;;;;9.05;3.08;;;15.40;99.90;;;;;;4992888;28;20042;-79
2021/07/03 05:28:13;;;;;;;6.18;2.47;;;15.40;99.90;;;;;;4994130;28;20026;-79
2021/07/03 05:30:39;;;;;;;7.18;3.20;;;15.40;99.90;;;;;;4996444;28;20026;-79
2021/07/03 05:33:05;;;;;;;5.63;2.40;;;15.30;99.90;;;;;;5013345;28;20018;-79
2021/07/03 05:35:31;;;;;;;3.67;2.03;;;15.50;99.90;;;;;;5028717;28;20113;-79
2021/07/03 05:37:57;;;;;;;4.70;2.15;;;15.40;99.90;;;;;;5013534;28;20033;-79
2021/07/03 05:40:22;;;;;;;11.43;3.08;;;15.40;99.90;;;;;;5003542;28;20033;-80
2021/07/03 05:42:48;;;;;;;9.85;2.63;;;15.40;99.90;;;;;;5024287;28;20076;-79
2021/07/03 05:45:15;;;;;;;5.20;2.47;;;15.50;99.90;;;;;;5027079;28;20615;-79
2021/07/03 05:47:49;;;;;;;7.50;2.55;;;15.60;99.90;;;;;;5012394;28;20448;-79
2021/07/03 05:50:16;;;;;;;5.47;2.70;;;15.50;99.90;;;;;;5017881;28;20017;-80
2021/07/03 05:52:41;;;;;;;6.63;2.42;;;15.70;99.90;;;;;;5008045;28;20490;-79
2021/07/03 05:55:07;;;;;;;4.68;2.30;;;15.70;99.90;;;;;;5023531;28;20029;-79
2021/07/03 05:57:33;;;;;;;8.07;2.75;;;15.70;99.90;;;;;;5015275;28;20018;-78
2021/07/03 05:59:58;;;;;;;4.32;2.42;;;15.70;99.90;;;;;;5021804;28;20041;-79
2021/07/03 06:02:24;;;;;;;4.55;2.15;;;15.70;99.90;;;;;;5006091;28;20030;-79
2021/07/03 06:04:49;;;;;;;5.28;2.20;;;15.80;99.90;;;;;;5008842;28;20072;-78
2021/07/03 06:07:15;;;;;;;3.33;2.33;;;15.80;99.90;;;;;;5012375;28;20029;-77
2021/07/03 06:09:40;;;;;;;4.28;2.00;;;15.70;99.90;;;;;;5023051;28;20453;-79
2021/07/03 06:12:06;;;;;;;4.70;2.28;;;15.70;99.90;;;;;;5012378;28;20055;-78
2021/07/03 06:14:31;;;;;;;5.38;2.17;;;15.70;99.90;;;;;;5015341;28;20112;-79
2021/07/03 06:16:57;;;;;;;3.05;2.10;;;15.80;99.90;;;;;;5020702;28;20045;-78
2021/07/03 06:19:24;;;;;;;6.07;2.22;;;15.80;99.90;;;;;;5018827;28;20676;-79
2021/07/03 06:21:50;;;;;;;3.58;1.83;;;15.80;99.90;;;;;;5009425;28;20037;-78
2021/07/03 06:24:15;;;;;;;1.98;1.73;;;15.80;99.90;;;;;;5014710;28;20045;-79
2021/07/03 06:26:41;;;;;;;6.70;1.95;;;15.80;99.90;;;;;;5024546;28;20034;-78
2021/07/03 06:29:07;;;;;;;4.22;1.98;;;15.90;99.90;;;;;;5026481;28;20490;-79
2021/07/03 06:31:32;;;;;;;6.40;2.30;;;15.90;99.90;;;;;;5019114;28;20037;-78
2021/07/03 06:33:58;;;;;;;6.25;2.33;;;15.90;99.90;;;;;;5024350;28;20101;-78
2021/07/03 06:36:25;;;;;;;5.07;2.00;;;15.90;99.90;;;;;;5019087;28;20022;-78
2021/07/03 06:38:51;;;;;;;6.30;2.80;;;15.90;99.90;;;;;;5032147;28;20083;-77
2021/07/03 06:41:16;;;;;;;9.18;2.63;;;15.90;99.90;;;;;;5030505;28;20026;-77
2021/07/03 06:43:42;;;;;;;8.25;1.63;;;15.90;99.90;;;;;;5024356;28;20118;-79
2021/07/03 06:46:07;;;;;;;11.90;4.05;;;15.90;99.90;;;;;;5010384;28;20037;-78
2021/07/03 06:48:33;;;;;;;3.22;1.90;;;16.00;99.90;;;;;;5027319;28;20030;-78
2021/07/03 06:50:59;;;;;;;8.15;2.13;;;15.90;99.90;;;;;;5012191;28;20032;-79
2021/07/03 06:53:24;;;;;;;6.05;2.47;;;16.00;99.90;;;;;;5010991;28;20049;-78
2021/07/03 06:55:50;;;;;;;4.20;2.20;;;16.00;99.90;;;;;;4998516;28;20053;-78
2021/07/03 06:58:15;;;;;;;3.40;2.05;;;16.10;99.90;;;;;;5027308;28;20037;-79
2021/07/03 07:00:41;;;;;;;7.78;2.15;;;16.20;99.90;;;;;;5027193;28;20030;-78
2021/07/03 07:03:06;;;;;;;3.92;2.00;;;16.20;99.90;;;;;;5026964;28;20029;-77
2021/07/03 07:05:32;;;;;;;5.43;2.63;;;16.10;99.90;;;;;;5027054;28;20022;-77
2021/07/03 07:07:57;;;;;;;7.15;2.47;;;16.10;99.90;;;;;;4993118;28;20042;-77
2021/07/03 07:10:23;;;;;;;5.38;1.85;;;16.10;99.90;;;;;;4992315;28;20026;-78
2021/07/03 07:12:49;;;;;;;9.00;2.72;;;16.10;99.90;;;;;;4992059;28;20057;-78
2021/07/03 07:15:16;;;;;;;3.58;2.00;;;16.10;99.90;;;;;;4992302;28;20033;-78
2021/07/03 07:17:41;;;;;;;6.25;2.10;;;16.10;99.90;;;;;;5003715;28;20037;-77
2021/07/03 07:20:08;;;;;;;7.45;2.58;;;16.20;99.90;;;;;;5009489;28;20026;-78
2021/07/03 07:22:33;;;;;;;5.03;2.83;;;16.20;99.90;;;;;;5007100;28;20030;-78
2021/07/03 07:24:59;;;;;;;7.55;2.75;;;16.20;99.90;;;;;;4997738;28;20030;-78
2021/07/03 07:27:25;;;;;;;3.85;2.50;;;16.10;99.90;;;;;;5011676;28;20030;-78
2021/07/03 07:29:50;;;;;;;7.72;2.45;;;16.10;99.90;;;;;;5011712;28;20034;-78
2021/07/03 07:32:16;;;;;;;9.40;2.72;;;16.00;99.90;;;;;;5011506;28;20029;-78
2021/07/03 07:34:43;;;;;;;7.40;2.95;;;16.00;99.90;;;;;;5025822;28;20022;-78
2021/07/03 07:37:09;;;;;;;9.98;3.63;;;16.10;99.90;;;;;;4992079;28;20022;-78
2021/07/03 07:39:35;;;;;;;9.18;2.88;;;16.10;99.90;;;;;;5007204;28;20034;-78
2021/07/03 07:42:00;;;;;;;6.88;3.05;;;16.20;99.90;;;;;;4992386;28;20037;-78
2021/07/03 07:44:26;;;;;;;17.50;3.17;;;16.30;99.90;;;;;;4995928;28;20387;-77
2021/07/03 07:46:51;;;;;;;8.40;2.72;;;16.20;99.90;;;;;;5000124;28;20046;-78
2021/07/03 07:49:17;;;;;;;8.45;2.92;;;16.30;99.90;;;;;;5025219;28;20029;-78
2021/07/03 07:51:42;;;;;;;5.90;2.92;;;16.20;99.90;;;;;;5015291;28;20504;-78
2021/07/03 07:54:08;;;;;;;7.07;3.25;;;16.30;99.90;;;;;;5030421;28;20069;-78
2021/07/03 07:56:33;;;;;;;7.05;4.15;;;16.50;99.90;;;;;;5010299;28;20042;-77
2021/07/03 07:58:59;;;;;;;13.10;4.53;;;16.60;99.90;;;;;;4995672;28;20039;-78
2021/07/03 08:01:25;;;;;;;17.67;9.23;;;16.60;99.90;;;;;;4994262;28;20022;-78
2021/07/03 08:03:50;;;;;;;6.75;5.38;;;16.60;99.90;;;;;;5010673;28;20027;-78
2021/07/03 08:06:16;;;;;;;5.25;3.75;;;16.50;99.90;;;;;;4995457;28;20031;-77
2021/07/03 08:08:42;;;;;;;10.20;3.90;;;16.50;99.90;;;;;;5014321;28;20018;-77
2021/07/03 08:11:07;;;;;;;11.38;3.15;;;16.50;99.90;;;;;;5014986;28;20513;-78
2021/07/03 08:13:33;;;;;;;4.88;3.45;;;16.60;99.90;;;;;;5014763;28;20057;-78
2021/07/03 08:15:59;;;;;;;10.45;4.50;;;16.60;99.90;;;;;;5014907;28;20030;-78
2021/07/03 08:18:25;;;;;;;11.95;5.30;;;16.60;99.90;;;;;;5000508;28;20034;-78
2021/07/03 08:20:52;;;;;;;7.07;3.53;;;16.60;99.90;;;;;;5010219;28;20062;-78
2021/07/03 08:23:17;;;;;;;5.60;3.47;;;16.50;99.90;;;;;;4994980;28;20109;-79
2021/07/03 08:25:43;;;;;;;7.13;3.75;;;16.50;99.90;;;;;;4994911;28;20448;-77
2021/07/03 08:28:09;;;;;;;9.05;3.60;;;16.50;99.90;;;;;;4996067;28;20030;-79
2021/07/03 08:30:36;;;;;;;10.20;3.42;;;16.60;99.90;;;;;;5013868;28;20486;-78
2021/07/03 08:33:01;;;;;;;5.63;3.85;;;16.70;99.90;;;;;;5014274;28;20101;-78
2021/07/03 08:35:27;;;;;;;8.95;3.38;;;16.60;99.90;;;;;;5014659;28;20467;-78
2021/07/03 08:37:53;;;;;;;13.50;3.70;;;16.70;99.90;;;;;;5010476;28;20028;-78
2021/07/03 08:40:19;;;;;;;10.55;3.13;;;16.80;99.90;;;;;;4994749;28;20034;-79
2021/07/03 08:42:45;;;;;;;3.20;2.72;;;16.70;99.90;;;;;;5013388;28;20087;-77
2021/07/03 08:45:12;;;;;;;7.05;3.80;;;16.70;99.90;;;;;;5014462;28;20022;-77
2021/07/03 08:47:39;;;;;;;7.40;3.80;;;16.70;99.90;;;;;;5029473;28;20022;-79
2021/07/03 08:50:06;;;;;;;8.57;3.78;;;16.80;99.90;;;;;;5014348;28;20109;-78
2021/07/03 08:52:31;;;;;;;5.57;3.55;;;16.80;99.90;;;;;;5014015;28;20113;-78
2021/07/03 08:55:00;;;;;;;7.28;3.88;;;16.80;99.90;;;;;;5010625;28;20117;-78
2021/07/03 08:57:25;;;;;;;8.23;3.40;;;16.70;99.90;;;;;;4994735;28;20501;-79
2021/07/03 08:59:56;;;;;;;10.57;3.53;;;16.80;99.90;;;;;;4994886;28;20034;-79
2021/07/03 09:02:35;;;;;;;7.95;3.70;;;17.00;99.90;;;;;;5009323;28;20026;-78
2021/07/03 09:05:01;;;;;;;2.95;2.67;;;17.30;99.90;;;;;;5008805;28;20100;-78
2021/07/03 09:07:35;;;;;;;6.15;3.60;;;17.30;99.90;;;;;;5013955;28;20030;-78
2021/07/03 09:10:02;;;;;;;4.05;2.35;;;17.40;99.90;;;;;;5013977;28;20772;-78
2021/07/03 09:12:30;;;;;;;5.32;2.83;;;17.50;99.90;;;;;;5013758;28;20033;-78
2021/07/03 09:15:07;;;;;;;3.88;2.50;;;17.50;99.90;;;;;;5001090;28;20026;-78
2021/07/03 09:17:32;;;;;;;4.72;2.47;;;17.70;99.90;;;;;;5009883;28;20030;-78
2021/07/03 09:19:58;;;;;;;5.70;2.92;;;17.80;99.90;;;;;;5011914;28;20030;-79
2021/07/03 09:22:33;;;;;;;7.10;2.72;;;17.90;99.90;;;;;;5017805;28;20069;-78
2021/07/03 09:24:59;;;;;;;5.82;2.70;;;18.00;99.90;;;;;;5006146;28;20120;-78
2021/07/03 09:27:25;;;;;;;3.42;2.38;;;18.00;99.90;;;;;;5016524;28;20028;-78
2021/07/03 09:29:51;;;;;;;4.80;2.30;;;18.10;99.90;;;;;;5019494;28;20052;-78
2021/07/03 09:32:17;;;;;;;4.78;2.53;;;18.00;99.90;;;;;;5025018;28;20040;-78
2021/07/03 09:34:43;;;;;;;3.35;2.20;;;18.10;99.90;;;;;;5020119;28;20025;-78
2021/07/03 09:37:12;;;;;;;3.40;2.35;;;18.20;99.90;;;;;;5016492;28;20025;-78
2021/07/03 09:39:37;;;;;;;4.35;2.55;;;18.40;99.90;;;;;;5017195;28;20452;-79
2021/07/03 09:42:12;;;;;;;2.75;2.50;;;18.50;99.90;;;;;;5014204;28;20030;-78
2021/07/03 09:44:37;;;;;;;3.88;2.50;;;18.80;99.90;;;;;;5009984;28;20030;-78
2021/07/03 09:47:03;;;;;;;4.20;2.58;;;18.60;99.90;;;;;;5028654;28;20033;-78
2021/07/03 09:49:29;;;;;;;4.45;3.08;;;18.60;99.90;;;;;;5024920;28;20017;-77
2021/07/03 09:51:59;;;;;;;11.35;3.35;;;18.60;99.90;;;;;;5014120;28;20107;-78
2021/07/03 09:54:30;;;;;;;2.83;2.50;;;18.40;99.90;;;;;;5023950;28;20032;-78
2021/07/03 09:56:59;;;;;;;3.58;2.25;;;18.40;99.90;;;;;;5007757;28;20026;-77
2021/07/03 09:59:33;;;;;;;4.22;2.88;;;18.30;99.90;;;;;;5018589;28;20582;-79
2021/07/03 10:02:00;;;;;;;3.53;2.30;;;18.50;99.90;;;;;;5019750;28;20026;-76
2021/07/03 10:04:26;;;;;;;5.22;2.83;;;18.50;99.90;;;;;;5008476;28;20029;-77
2021/07/03 10:07:18;;;;;;;4.63;2.35;;;18.60;99.90;;;;;;5008825;28;20033;-77
2021/07/03 10:09:50;;;;;;;2.28;1.83;;;18.60;99.90;;;;;;5024855;28;20137;-77
2021/07/03 10:12:23;;;;;;;6.70;2.70;;;18.90;99.90;;;;;;5018890;28;20021;-77
2021/07/03 10:14:49;;;;;;;2.15;1.92;;;19.10;99.90;;;;;;5011714;28;20018;-78
2021/07/03 10:17:26;;;;;;;3.08;2.15;;;19.40;99.90;;;;;;5013510;28;20117;-77
2021/07/03 10:19:53;;;;;;;2.72;2.13;;;19.60;99.90;;;;;;5016888;28;20053;-77
2021/07/03 10:22:23;;;;;;;3.42;1.90;;;19.70;99.90;;;;;;5009960;28;20038;-78
2021/07/03 10:24:54;;;;;;;5.88;2.17;;;19.70;99.90;;;;;;5019179;28;20033;-78
2021/07/03 10:27:29;;;;;;;2.35;2.15;;;19.70;99.90;;;;;;5015007;28;20062;-78
2021/07/03 10:30:00;;;;;;;2.30;2.10;;;19.50;99.90;;;;;;5018039;28;20832;-79
2021/07/03 10:32:32;;;;;;;15.32;2.80;;;19.30;99.90;;;;;;5024232;28;20137;-79
2021/07/03 10:35:15;;;;;;;7.07;2.30;;;19.10;99.90;;;;;;5017285;28;20060;-79
2021/07/03 10:37:42;;;;;;;6.43;2.17;;;18.90;99.90;;;;;;5015958;28;20018;-78
2021/07/03 10:40:21;;;;;;;2.70;1.95;;;19.10;99.90;;;;;;5018278;28;20026;-78
2021/07/03 10:42:48;;;;;;;2.53;2.30;;;19.30;99.90;;;;;;5019902;28;20105;-80
2021/07/03 10:45:16;;;;;;;4.22;2.60;;;19.50;99.90;;;;;;5007926;28;20598;-79
2021/07/03 10:47:42;;;;;;;5.00;2.90;;;19.70;99.90;;;;;;5021675;28;20049;-78
2021/07/03 10:50:24;;;;;;;2.60;2.05;;;19.80;99.90;;;;;;5018251;28;20482;-78
2021/07/03 10:52:51;;;;;;;4.72;1.88;;;20.40;99.90;;;;;;5009443;28;20037;-78
2021/07/03 10:55:30;;;;;;;5.32;2.20;;;20.80;99.90;;;;;;5015646;28;20096;-77
2021/07/03 10:57:57;;;;;;;9.02;4.40;;;21.30;99.90;;;;;;5011502;28;20037;-77
2021/07/03 11:00:24;;;;;;;3.80;2.58;;;21.20;99.90;;;;;;5016801;28;20030;-77
2021/07/03 11:02:51;;;;;;;3.20;2.90;;;21.00;99.90;;;;;;5018561;28;20017;-77
2021/07/03 11:05:17;;;;;;;5.03;3.17;;;20.80;99.90;;;;;;5017877;28;20022;-77
2021/07/03 11:07:45;;;;;;;7.68;4.10;;;20.60;99.90;;;;;;5014819;28;20021;-77
2021/07/03 11:10:26;;;;;;;3.10;2.45;;;20.20;99.90;;;;;;5033291;28;20030;-77
2021/07/03 11:12:53;;;;;;;4.40;2.30;;;19.90;99.90;;;;;;5009659;28;20028;-77
2021/07/03 11:15:24;;;;;;;2.22;1.77;;;19.80;99.90;;;;;;5016862;28;20032;-77
2021/07/03 11:17:50;;;;;;;4.47;2.33;;;19.70;99.90;;;;;;5001950;28;20022;-78
2021/07/03 11:20:34;;;;;;;3.97;1.90;;;20.10;99.90;;;;;;5021957;28;20464;-77
2021/07/03 11:23:02;;;;;;;3.80;2.88;;;20.60;99.90;;;;;;5015531;28;20041;-77
2021/07/03 11:25:28;;;;;;;2.80;1.67;;;21.00;99.90;;;;;;5014595;28;20041;-77
2021/07/03 11:28:04;;;;;;;8.45;3.53;;;21.20;99.90;;;;;;5024767;28;20026;-77
2021/07/03 11:30:30;;;;;;;4.53;2.00;;;21.20;99.90;;;;;;5025092;28;20022;-77
2021/07/03 11:32:57;;;;;;;6.85;2.88;;;21.20;99.90;;;;;;5018200;28;20034;-78
2021/07/03 11:35:23;;;;;;;6.57;2.33;;;21.00;99.90;;;;;;5011823;28;20737;-78
2021/07/03 11:37:49;;;;;;;6.72;2.13;;;21.20;99.90;;;;;;5010246;28;20042;-78
2021/07/03 11:40:24;;;;;;;5.72;2.30;;;21.10;99.90;;;;;;5011470;28;20029;-79
2021/07/03 11:42:55;;;;;;;3.22;2.15;;;21.20;99.90;;;;;;5013373;28;20025;-77
2021/07/03 11:45:24;;;;;;;4.72;2.67;;;21.40;99.90;;;;;;5017559;28;20081;-78
2021/07/03 11:48:01;;;;;;;8.27;1.85;;;21.50;99.90;;;;;;5014200;28;20017;-78
2021/07/03 11:50:33;;;;;;;4.90;2.22;;;21.20;99.90;;;;;;5019790;28;20115;-77
2021/07/03 11:53:00;;;;;;;6.32;2.05;;;21.20;99.90;;;;;;5010793;28;20026;-80
2021/07/03 11:55:31;;;;;;;6.57;2.13;;;21.30;99.90;;;;;;5022812;28;20037;-79
2021/07/03 11:57:57;;;;;;;7.75;2.40;;;21.50;99.90;;;;;;5006822;28;20025;-79
2021/07/03 12:00:25;;;;;;;1.70;1.38;;;21.50;99.90;;;;;;5028762;28;20033;-79
2021/07/03 12:02:51;;;;;;;3.45;1.85;;;21.50;99.90;;;;;;5028365;28;20108;-78
2021/07/03 12:05:27;;;;;;;2.65;1.63;;;21.80;99.90;;;;;;5015243;28;20509;-77
2021/07/03 12:08:10;;;;;;;5.43;2.03;;;21.80;99.90;;;;;;5020668;28;20030;-78
2021/07/03 12:10:37;;;;;;;8.63;2.25;;;22.60;99.90;;;;;;5010672;28;20101;-77
2021/07/03 12:13:05;;;;;;;3.63;2.10;;;23.00;99.90;;;;;;5012534;28;20482;-77
2021/07/03 12:15:32;;;;;;;4.25;2.00;;;22.80;99.90;;;;;;5028380;28;20032;-77
2021/07/03 12:17:58;;;;;;;5.22;2.65;;;22.70;99.90;;;;;;5021747;28;20096;-77
2021/07/03 12:20:25;;;;;;;5.18;2.42;;;22.40;99.90;;;;;;5025709;28;20018;-77
2021/07/03 12:23:03;;;;;;;4.20;2.28;;;22.00;99.90;;;;;;5022007;28;20061;-77
2021/07/03 12:25:29;;;;;;;6.43;2.50;;;21.70;99.90;;;;;;5011287;28;20025;-77
2021/07/03 12:28:02;;;;;;;3.25;1.67;;;21.90;99.90;;;;;;5019026;28;20032;-77
2021/07/03 12:30:29;;;;;;;4.93;2.47;;;22.00;99.90;;;;;;5019753;28;20018;-76
2021/07/03 12:33:09;;;;;;;8.65;2.95;;;22.70;99.90;;;;;;5010828;28;20018;-76
2021/07/03 12:35:52;;;;;;;4.40;2.38;;;23.30;99.90;;;;;;5003398;28;20029;-76
2021/07/03 12:38:24;;;;;;;4.50;2.60;;;23.60;99.90;;;;;;5006047;28;20572;-78
2021/07/03 12:40:50;;;;;;;5.70;2.85;;;23.50;99.90;;;;;;5009872;28;20395;-77
2021/07/03 12:43:15;;;;;;;4.43;3.05;;;23.10;99.90;;;;;;5014522;28;20139;-78